createdAt,value
2023-05-12T00:00:02.937Z,0
2023-05-12T00:05:03.129Z,0
2023-05-12T00:10:02.935Z,0
2023-05-12T00:15:02.919Z,0
2023-05-12T00:20:02.926Z,0
2023-05-12T00:25:03.095Z,0
2023-05-12T00:30:02.950Z,0
2023-05-12T00:35:03.170Z,0
2023-05-12T00:40:02.950Z,0
2023-05-12T00:45:02.940Z,0
2023-05-12T00:50:02.952Z,0
2023-05-12T00:55:02.957Z,0
2023-05-12T01:00:03.152Z,0
2023-05-12T01:05:02.931Z,0
2023-05-12T01:10:02.974Z,0
2023-05-12T01:15:02.925Z,0
2023-05-12T01:20:03.032Z,0
2023-05-12T01:25:02.968Z,0
2023-05-12T01:30:02.941Z,0
2023-05-12T01:35:02.918Z,0
2023-05-12T01:40:02.925Z,0
2023-05-12T01:45:02.963Z,0
2023-05-12T01:50:02.947Z,0
2023-05-12T01:55:02.974Z,0
2023-05-12T02:00:02.936Z,0
2023-05-12T02:05:02.967Z,0
2023-05-12T02:10:03.080Z,0
2023-05-12T02:15:02.883Z,0
2023-05-12T02:20:02.903Z,0
2023-05-12T02:25:02.959Z,0
2023-05-12T02:30:02.908Z,0
2023-05-12T02:35:02.961Z,0
2023-05-12T02:40:02.962Z,0
2023-05-12T02:45:02.948Z,0
2023-05-12T02:50:02.987Z,0
2023-05-12T02:55:02.950Z,0
2023-05-12T03:00:02.959Z,0
2023-05-12T03:05:03.003Z,0
2023-05-12T03:10:02.970Z,0
2023-05-12T03:15:02.889Z,0
2023-05-12T03:20:02.974Z,0
2023-05-12T03:25:02.916Z,0
2023-05-12T03:30:02.958Z,0
2023-05-12T03:35:02.984Z,0
2023-05-12T03:40:02.948Z,0
2023-05-12T03:45:02.931Z,0
2023-05-12T03:50:02.976Z,0
2023-05-12T03:55:03.011Z,0
2023-05-12T04:00:02.966Z,0
2023-05-12T04:05:02.932Z,0
2023-05-12T04:10:03.043Z,0
2023-05-12T04:15:03.002Z,265
2023-05-12T04:20:02.965Z,266
2023-05-12T04:25:02.958Z,265
2023-05-12T04:30:02.990Z,266
2023-05-12T04:35:02.969Z,267
2023-05-12T04:40:03.003Z,265
2023-05-12T04:45:02.991Z,268
2023-05-12T04:50:03.002Z,265
2023-05-12T04:55:02.943Z,266
2023-05-12T05:00:02.978Z,266
2023-05-12T05:05:02.975Z,266
2023-05-12T05:10:02.988Z,265
2023-05-12T05:15:02.960Z,0
2023-05-12T05:20:11.368Z,269
2023-05-12T05:25:02.948Z,273
2023-05-12T05:30:03.081Z,272
2023-05-12T05:35:03.022Z,269
2023-05-12T05:40:03.004Z,271
2023-05-12T05:45:03.122Z,272
2023-05-12T05:50:02.979Z,276
2023-05-12T05:55:02.944Z,285
2023-05-12T06:00:02.933Z,297
2023-05-12T06:05:03.017Z,305
2023-05-12T06:10:03.207Z,293
2023-05-12T06:15:02.931Z,286
2023-05-12T06:20:02.948Z,286
2023-05-12T06:25:03.010Z,280
2023-05-12T06:30:02.969Z,289
2023-05-12T06:35:02.999Z,282
2023-05-12T06:40:02.990Z,287
2023-05-12T06:45:02.945Z,292
2023-05-12T06:50:02.984Z,285
2023-05-12T06:55:03.112Z,283
2023-05-12T07:00:02.943Z,282
2023-05-12T07:05:03.208Z,290
2023-05-12T07:10:02.988Z,294
2023-05-12T07:15:02.980Z,305
2023-05-12T07:20:03.026Z,314
2023-05-12T07:25:03.073Z,310
2023-05-12T07:30:02.969Z,324
2023-05-12T07:35:03.090Z,331
2023-05-12T07:40:02.993Z,318
2023-05-12T07:45:02.929Z,322
2023-05-12T07:50:03.013Z,333
2023-05-12T07:55:03.127Z,338
2023-05-12T08:00:02.967Z,326
2023-05-12T08:05:03.040Z,329
2023-05-12T08:10:03.026Z,319
2023-05-12T08:15:02.975Z,335
2023-05-12T08:20:02.991Z,338
2023-05-12T08:25:03.168Z,364
2023-05-12T08:30:02.978Z,390
2023-05-12T08:35:03.183Z,422
2023-05-12T08:40:02.991Z,410
2023-05-12T08:45:03.037Z,327
2023-05-12T08:50:03.002Z,368
2023-05-12T08:55:04.021Z,345
2023-05-12T09:00:03.106Z,308
2023-05-12T09:05:03.353Z,322
2023-05-12T09:10:03.027Z,313
2023-05-12T09:15:03.010Z,280
2023-05-12T09:20:02.988Z,283
2023-05-12T09:25:03.066Z,326
2023-05-12T09:30:02.961Z,301
2023-05-12T09:35:03.052Z,329
2023-05-12T09:40:03.122Z,299
2023-05-12T09:45:03.029Z,296
2023-05-12T09:50:03.046Z,312
2023-05-12T09:55:02.996Z,352
2023-05-12T10:00:03.025Z,367
2023-05-12T10:05:04.136Z,296
2023-05-12T10:10:03.045Z,301
2023-05-12T10:15:02.998Z,303
2023-05-12T10:20:03.289Z,283
2023-05-12T10:25:02.992Z,288
2023-05-12T10:30:02.976Z,310
2023-05-12T10:35:03.046Z,291
2023-05-12T10:40:03.092Z,278
2023-05-12T10:45:02.974Z,276
2023-05-12T10:50:03.092Z,273
2023-05-12T10:55:03.232Z,271
2023-05-12T11:00:04.729Z,291
2023-05-12T11:05:03.961Z,302
2023-05-12T11:10:05.028Z,300
2023-05-12T11:15:03.033Z,285
2023-05-12T11:20:03.017Z,291
2023-05-12T11:25:03.051Z,292
2023-05-12T11:30:03.106Z,285
2023-05-12T11:35:03.034Z,308
2023-05-12T11:40:03.044Z,307
2023-05-12T11:45:04.000Z,317
2023-05-12T11:50:03.049Z,333
2023-05-12T11:55:03.112Z,334
2023-05-12T12:00:03.010Z,357
2023-05-12T12:05:03.008Z,347
2023-05-12T12:10:03.079Z,311
2023-05-12T12:15:03.052Z,289
2023-05-12T12:20:04.047Z,283
2023-05-12T12:25:03.076Z,315
2023-05-12T12:30:03.038Z,315
2023-05-12T12:35:03.139Z,317
2023-05-12T12:40:03.041Z,321
2023-05-12T12:45:03.170Z,332
2023-05-12T12:50:03.046Z,334
2023-05-12T12:55:03.050Z,325
2023-05-12T13:00:03.010Z,340
2023-05-12T13:05:03.111Z,341
2023-05-12T13:10:03.084Z,336
2023-05-12T13:15:03.215Z,332
2023-05-12T13:20:03.168Z,332
2023-05-12T13:25:03.923Z,333
2023-05-12T13:30:03.026Z,335
2023-05-12T13:35:03.072Z,336
2023-05-12T13:40:03.069Z,331
2023-05-12T13:45:03.046Z,327
2023-05-12T13:50:03.070Z,325
2023-05-12T13:55:03.115Z,318
2023-05-12T14:00:03.106Z,313
2023-05-12T14:05:03.063Z,307
2023-05-12T14:10:03.050Z,311
2023-05-12T14:15:21.664Z,309
2023-05-12T14:20:03.090Z,313
2023-05-12T14:25:03.091Z,310
2023-05-12T14:30:03.011Z,313
2023-05-12T14:35:03.141Z,312
2023-05-12T14:40:03.083Z,316
2023-05-12T14:45:03.089Z,314
2023-05-12T14:50:03.192Z,313
2023-05-12T14:55:03.083Z,309
2023-05-12T15:00:03.125Z,308
2023-05-12T15:05:03.157Z,307
2023-05-12T15:10:03.176Z,306
2023-05-12T15:15:03.336Z,303
2023-05-12T15:20:03.126Z,307
2023-05-12T15:25:03.283Z,305
2023-05-12T15:30:03.167Z,301
2023-05-12T15:35:03.122Z,304
2023-05-12T15:40:03.294Z,291
2023-05-12T15:45:03.073Z,285
2023-05-12T15:50:03.128Z,292
2023-05-12T15:55:03.149Z,290
2023-05-12T16:00:03.148Z,293
2023-05-12T16:05:03.148Z,291
2023-05-12T16:10:03.132Z,291
2023-05-12T16:15:03.080Z,291
2023-05-12T16:20:03.287Z,288
2023-05-12T16:25:03.094Z,288
2023-05-12T16:30:03.110Z,289
2023-05-12T16:35:03.115Z,287
2023-05-12T16:40:03.094Z,286
2023-05-12T16:45:03.101Z,283
2023-05-12T16:50:03.122Z,288
2023-05-12T16:55:03.130Z,280
2023-05-12T17:00:03.349Z,277
2023-05-12T17:05:03.107Z,276
2023-05-12T17:10:04.136Z,277
2023-05-12T17:15:07.819Z,277
2023-05-12T17:20:03.170Z,278
2023-05-12T17:25:03.130Z,277
2023-05-12T17:30:03.083Z,274
2023-05-12T17:35:03.139Z,272
2023-05-12T17:40:03.128Z,274
2023-05-12T17:45:03.060Z,270
2023-05-12T17:50:03.372Z,270
2023-05-12T17:55:04.094Z,269
2023-05-12T18:00:03.117Z,269
2023-05-12T18:05:03.139Z,267
2023-05-12T18:10:03.153Z,265
2023-05-12T18:15:03.104Z,265
2023-05-12T18:20:03.092Z,0
2023-05-12T18:25:04.166Z,0
2023-05-12T18:30:03.144Z,0
2023-05-12T18:35:03.145Z,0
2023-05-12T18:40:03.165Z,0
2023-05-12T18:45:03.109Z,0
2023-05-12T18:50:03.144Z,0
2023-05-12T18:55:03.152Z,0
2023-05-12T19:00:03.144Z,0
2023-05-12T19:05:03.089Z,0
2023-05-12T19:10:03.099Z,0
2023-05-12T19:15:03.074Z,0
2023-05-12T19:20:03.197Z,0
2023-05-12T19:25:03.132Z,0
2023-05-12T19:30:03.100Z,0
2023-05-12T19:35:04.125Z,0
2023-05-12T19:40:04.137Z,0
2023-05-12T19:45:04.163Z,0
2023-05-12T19:50:04.139Z,0
2023-05-12T19:55:04.172Z,0
2023-05-12T20:00:04.111Z,0
2023-05-12T20:05:04.171Z,0
2023-05-12T20:10:04.142Z,0
2023-05-12T20:15:04.162Z,0
2023-05-12T20:20:04.253Z,0
2023-05-12T20:25:04.289Z,0
2023-05-12T20:30:04.153Z,0
2023-05-12T20:35:04.155Z,0
2023-05-12T20:40:04.182Z,0
2023-05-12T20:45:04.124Z,0
2023-05-12T20:50:04.169Z,0
2023-05-12T20:55:04.194Z,0
2023-05-12T21:00:04.101Z,0
2023-05-12T21:05:04.160Z,0
2023-05-12T21:10:04.193Z,0
2023-05-12T21:15:04.151Z,0
2023-05-12T21:20:04.159Z,0
2023-05-12T21:25:04.200Z,0
2023-05-12T21:30:04.124Z,0
2023-05-12T21:35:04.174Z,0
2023-05-12T21:40:04.162Z,0
2023-05-12T21:45:04.128Z,0
2023-05-12T21:50:04.201Z,0
2023-05-12T21:55:04.160Z,0
2023-05-12T22:00:04.149Z,0
2023-05-12T22:05:04.114Z,0
2023-05-12T22:10:04.144Z,0
2023-05-12T22:15:04.144Z,0
2023-05-12T22:20:04.166Z,0
2023-05-12T22:25:04.180Z,0
2023-05-12T22:30:04.164Z,0
2023-05-12T22:35:04.142Z,0
2023-05-12T22:40:04.235Z,0
2023-05-12T22:45:04.151Z,0
2023-05-12T22:50:04.211Z,0
2023-05-12T22:55:04.141Z,0
2023-05-12T23:00:04.176Z,0
2023-05-12T23:05:04.215Z,0
2023-05-12T23:10:04.190Z,0
2023-05-12T23:15:04.102Z,0
2023-05-12T23:20:04.189Z,0
2023-05-12T23:25:04.195Z,0
2023-05-12T23:30:04.174Z,0
2023-05-12T23:35:04.217Z,0
2023-05-12T23:40:04.195Z,0
2023-05-12T23:45:04.141Z,0
2023-05-12T23:50:04.200Z,0
2023-05-12T23:55:04.257Z,0
